sensor_id;sensor_type;location;lat;lon;timestamp;temperature;humidity
17252;DHT22;8742;51.716;8.790;2023-07-31T00:01:59;15.70;99.90
17252;DHT22;8742;51.716;8.790;2023-07-31T00:04:27;15.70;99.90
17252;DHT22;8742;51.716;8.790;2023-07-31T00:06:54;15.70;99.90
17252;DHT22;8742;51.716;8.790;2023-07-31T00:09:20;15.70;99.90
17252;DHT22;8742;51.716;8.790;2023-07-31T00:11:47;15.70;99.90
17252;DHT22;8742;51.716;8.790;2023-07-31T00:14:14;15.70;99.90
17252;DHT22;8742;51.716;8.790;2023-07-31T00:16:43;15.70;99.90
17252;DHT22;8742;51.716;8.790;2023-07-31T00:19:11;15.70;99.90
17252;DHT22;8742;51.716;8.790;2023-07-31T00:21:38;15.70;99.90
17252;DHT22;8742;51.716;8.790;2023-07-31T00:24:05;15.70;99.90
17252;DHT22;8742;51.716;8.790;2023-07-31T00:26:34;15.70;99.90
17252;DHT22;8742;51.716;8.790;2023-07-31T00:29:01;15.70;99.90
17252;DHT22;8742;51.716;8.790;2023-07-31T00:31:28;15.70;99.90
17252;DHT22;8742;51.716;8.790;2023-07-31T00:33:55;15.70;99.90
17252;DHT22;8742;51.716;8.790;2023-07-31T00:36:23;15.70;99.90
17252;DHT22;8742;51.716;8.790;2023-07-31T00:38:50;15.70;99.90
17252;DHT22;8742;51.716;8.790;2023-07-31T00:41:17;15.70;99.90
17252;DHT22;8742;51.716;8.790;2023-07-31T00:43:44;15.70;99.90
17252;DHT22;8742;51.716;8.790;2023-07-31T00:46:12;15.70;99.90
17252;DHT22;8742;51.716;8.790;2023-07-31T00:48:39;15.80;99.90
17252;DHT22;8742;51.716;8.790;2023-07-31T00:51:07;15.80;99.90
17252;DHT22;8742;51.716;8.790;2023-07-31T00:53:36;15.80;99.90
17252;DHT22;8742;51.716;8.790;2023-07-31T00:56:04;15.80;99.90
17252;DHT22;8742;51.716;8.790;2023-07-31T00:58:32;15.80;99.90
17252;DHT22;8742;51.716;8.790;2023-07-31T01:00:59;15.80;99.90
17252;DHT22;8742;51.716;8.790;2023-07-31T01:03:26;15.80;99.90
17252;DHT22;8742;51.716;8.790;2023-07-31T01:06:01;15.80;99.90
17252;DHT22;8742;51.716;8.790;2023-07-31T01:08:40;15.80;99.90
17252;DHT22;8742;51.716;8.790;2023-07-31T01:11:16;15.90;99.90
17252;DHT22;8742;51.716;8.790;2023-07-31T01:13:44;15.90;99.90
17252;DHT22;8742;51.716;8.790;2023-07-31T01:16:12;15.90;99.90
17252;DHT22;8742;51.716;8.790;2023-07-31T01:18:39;16.00;99.90
17252;DHT22;8742;51.716;8.790;2023-07-31T01:21:18;16.00;99.90
17252;DHT22;8742;51.716;8.790;2023-07-31T01:24:20;15.90;99.90
17252;DHT22;8742;51.716;8.790;2023-07-31T01:26:53;16.00;99.90
17252;DHT22;8742;51.716;8.790;2023-07-31T01:29:29;15.90;99.90
17252;DHT22;8742;51.716;8.790;2023-07-31T01:31:59;15.90;99.90
17252;DHT22;8742;51.716;8.790;2023-07-31T01:34:28;15.90;99.90
17252;DHT22;8742;51.716;8.790;2023-07-31T01:39:38;15.90;99.90
17252;DHT22;8742;51.716;8.790;2023-07-31T01:42:06;15.90;99.90
17252;DHT22;8742;51.716;8.790;2023-07-31T01:44:33;15.90;99.90
17252;DHT22;8742;51.716;8.790;2023-07-31T01:47:00;15.90;99.90
17252;DHT22;8742;51.716;8.790;2023-07-31T01:49:27;15.90;99.90
17252;DHT22;8742;51.716;8.790;2023-07-31T01:51:54;15.90;99.90
17252;DHT22;8742;51.716;8.790;2023-07-31T01:54:21;15.90;99.90
17252;DHT22;8742;51.716;8.790;2023-07-31T01:56:47;15.90;99.90
17252;DHT22;8742;51.716;8.790;2023-07-31T01:59:16;15.90;99.90
17252;DHT22;8742;51.716;8.790;2023-07-31T02:01:43;15.90;99.90
17252;DHT22;8742;51.716;8.790;2023-07-31T02:04:09;15.80;99.90
17252;DHT22;8742;51.716;8.790;2023-07-31T02:06:36;15.80;99.90
17252;DHT22;8742;51.716;8.790;2023-07-31T02:09:03;15.80;99.90
17252;DHT22;8742;51.716;8.790;2023-07-31T02:11:30;15.80;99.90
17252;DHT22;8742;51.716;8.790;2023-07-31T02:13:57;15.80;99.90
17252;DHT22;8742;51.716;8.790;2023-07-31T02:16:25;15.80;99.90
17252;DHT22;8742;51.716;8.790;2023-07-31T02:18:52;15.70;99.90
17252;DHT22;8742;51.716;8.790;2023-07-31T02:21:19;15.70;99.90
17252;DHT22;8742;51.716;8.790;2023-07-31T02:23:46;15.70;99.90
17252;DHT22;8742;51.716;8.790;2023-07-31T02:26:13;15.70;99.90
17252;DHT22;8742;51.716;8.790;2023-07-31T02:28:40;15.60;99.90
17252;DHT22;8742;51.716;8.790;2023-07-31T02:31:08;15.60;99.90
17252;DHT22;8742;51.716;8.790;2023-07-31T02:33:36;15.50;99.90
17252;DHT22;8742;51.716;8.790;2023-07-31T02:36:04;15.60;99.90
17252;DHT22;8742;51.716;8.790;2023-07-31T02:38:31;15.50;99.90
17252;DHT22;8742;51.716;8.790;2023-07-31T02:40:57;15.50;99.90
17252;DHT22;8742;51.716;8.790;2023-07-31T02:43:24;15.50;99.90
17252;DHT22;8742;51.716;8.790;2023-07-31T02:45:51;15.40;99.90
17252;DHT22;8742;51.716;8.790;2023-07-31T02:48:19;15.50;99.90
17252;DHT22;8742;51.716;8.790;2023-07-31T02:50:49;15.40;99.90
17252;DHT22;8742;51.716;8.790;2023-07-31T02:53:16;15.40;99.90
17252;DHT22;8742;51.716;8.790;2023-07-31T02:55:42;15.50;99.90
17252;DHT22;8742;51.716;8.790;2023-07-31T02:58:09;15.50;99.90
17252;DHT22;8742;51.716;8.790;2023-07-31T03:00:40;15.50;99.90
17252;DHT22;8742;51.716;8.790;2023-07-31T03:03:08;15.50;99.90
17252;DHT22;8742;51.716;8.790;2023-07-31T03:05:34;15.50;99.90
17252;DHT22;8742;51.716;8.790;2023-07-31T03:08:03;15.60;99.90
17252;DHT22;8742;51.716;8.790;2023-07-31T03:10:30;15.60;99.90
17252;DHT22;8742;51.716;8.790;2023-07-31T03:12:57;15.60;99.90
17252;DHT22;8742;51.716;8.790;2023-07-31T03:15:23;15.60;99.90
17252;DHT22;8742;51.716;8.790;2023-07-31T03:17:50;15.70;99.90
17252;DHT22;8742;51.716;8.790;2023-07-31T03:20:20;15.70;99.90
17252;DHT22;8742;51.716;8.790;2023-07-31T03:22:46;15.70;99.90
17252;DHT22;8742;51.716;8.790;2023-07-31T03:25:15;15.80;99.90
17252;DHT22;8742;51.716;8.790;2023-07-31T03:27:41;15.70;99.90
17252;DHT22;8742;51.716;8.790;2023-07-31T03:30:09;15.70;99.90
17252;DHT22;8742;51.716;8.790;2023-07-31T03:32:38;15.80;99.90
17252;DHT22;8742;51.716;8.790;2023-07-31T03:35:05;15.80;99.90
17252;DHT22;8742;51.716;8.790;2023-07-31T03:37:32;15.80;99.90
17252;DHT22;8742;51.716;8.790;2023-07-31T03:39:59;15.80;99.90
17252;DHT22;8742;51.716;8.790;2023-07-31T03:42:30;15.80;99.90
17252;DHT22;8742;51.716;8.790;2023-07-31T03:44:57;15.80;99.90
17252;DHT22;8742;51.716;8.790;2023-07-31T03:47:24;15.80;99.90
17252;DHT22;8742;51.716;8.790;2023-07-31T03:49:50;15.80;99.90
17252;DHT22;8742;51.716;8.790;2023-07-31T03:52:17;15.80;99.90
17252;DHT22;8742;51.716;8.790;2023-07-31T03:54:44;15.90;99.90
17252;DHT22;8742;51.716;8.790;2023-07-31T03:57:11;15.90;99.90
17252;DHT22;8742;51.716;8.790;2023-07-31T03:59:39;15.90;99.90
17252;DHT22;8742;51.716;8.790;2023-07-31T04:02:06;15.90;99.90
17252;DHT22;8742;51.716;8.790;2023-07-31T04:04:33;15.90;99.90
17252;DHT22;8742;51.716;8.790;2023-07-31T04:06:59;15.90;99.90
17252;DHT22;8742;51.716;8.790;2023-07-31T04:09:26;15.90;99.90
17252;DHT22;8742;51.716;8.790;2023-07-31T04:11:53;16.00;99.90
17252;DHT22;8742;51.716;8.790;2023-07-31T04:14:20;16.00;99.90
17252;DHT22;8742;51.716;8.790;2023-07-31T04:16:48;16.00;99.90
17252;DHT22;8742;51.716;8.790;2023-07-31T04:19:16;16.00;99.90
17252;DHT22;8742;51.716;8.790;2023-07-31T04:21:43;16.00;99.90
17252;DHT22;8742;51.716;8.790;2023-07-31T04:24:09;16.00;99.90
17252;DHT22;8742;51.716;8.790;2023-07-31T04:26:36;16.00;99.90
17252;DHT22;8742;51.716;8.790;2023-07-31T04:29:03;16.10;99.90
17252;DHT22;8742;51.716;8.790;2023-07-31T04:31:30;16.10;99.90
17252;DHT22;8742;51.716;8.790;2023-07-31T04:33:58;16.10;99.90
17252;DHT22;8742;51.716;8.790;2023-07-31T04:36:25;16.10;99.90
17252;DHT22;8742;51.716;8.790;2023-07-31T04:38:52;16.10;99.90
17252;DHT22;8742;51.716;8.790;2023-07-31T04:41:19;16.10;99.90
17252;DHT22;8742;51.716;8.790;2023-07-31T04:43:45;16.00;99.90
17252;DHT22;8742;51.716;8.790;2023-07-31T04:46:12;16.00;99.90
17252;DHT22;8742;51.716;8.790;2023-07-31T04:48:39;16.00;99.90
17252;DHT22;8742;51.716;8.790;2023-07-31T04:51:07;16.00;99.90
17252;DHT22;8742;51.716;8.790;2023-07-31T04:53:35;16.00;99.90
17252;DHT22;8742;51.716;8.790;2023-07-31T04:56:03;16.00;99.90
17252;DHT22;8742;51.716;8.790;2023-07-31T04:58:29;16.00;99.90
17252;DHT22;8742;51.716;8.790;2023-07-31T05:00:56;16.00;99.90
17252;DHT22;8742;51.716;8.790;2023-07-31T05:03:23;16.10;99.90
17252;DHT22;8742;51.716;8.790;2023-07-31T05:05:51;16.10;99.90
17252;DHT22;8742;51.716;8.790;2023-07-31T05:08:22;16.10;99.90
17252;DHT22;8742;51.716;8.790;2023-07-31T05:10:49;16.20;99.90
17252;DHT22;8742;51.716;8.790;2023-07-31T05:13:15;16.20;99.90
17252;DHT22;8742;51.716;8.790;2023-07-31T05:15:42;16.20;99.90
17252;DHT22;8742;51.716;8.790;2023-07-31T05:18:09;16.20;99.90
17252;DHT22;8742;51.716;8.790;2023-07-31T05:20:36;16.30;99.90
17252;DHT22;8742;51.716;8.790;2023-07-31T05:23:03;16.30;99.90
17252;DHT22;8742;51.716;8.790;2023-07-31T05:25:31;16.30;99.90
17252;DHT22;8742;51.716;8.790;2023-07-31T05:27:57;16.40;99.90
17252;DHT22;8742;51.716;8.790;2023-07-31T05:30:24;16.40;99.90
17252;DHT22;8742;51.716;8.790;2023-07-31T05:32:51;16.40;99.90
17252;DHT22;8742;51.716;8.790;2023-07-31T05:35:18;16.50;99.90
17252;DHT22;8742;51.716;8.790;2023-07-31T05:37:45;16.50;99.90
17252;DHT22;8742;51.716;8.790;2023-07-31T05:40:12;16.50;99.90
17252;DHT22;8742;51.716;8.790;2023-07-31T05:42:40;16.60;99.90
17252;DHT22;8742;51.716;8.790;2023-07-31T05:45:07;16.60;99.90
17252;DHT22;8742;51.716;8.790;2023-07-31T05:47:34;16.70;99.90
17252;DHT22;8742;51.716;8.790;2023-07-31T05:50:01;16.70;99.90
17252;DHT22;8742;51.716;8.790;2023-07-31T05:52:27;16.70;99.90
17252;DHT22;8742;51.716;8.790;2023-07-31T05:54:55;16.70;99.90
17252;DHT22;8742;51.716;8.790;2023-07-31T05:57:22;16.70;99.90
17252;DHT22;8742;51.716;8.790;2023-07-31T05:59:50;16.80;99.90
17252;DHT22;8742;51.716;8.790;2023-07-31T06:02:18;16.80;99.90
17252;DHT22;8742;51.716;8.790;2023-07-31T06:04:45;16.80;99.90
17252;DHT22;8742;51.716;8.790;2023-07-31T06:07:12;16.80;99.90
17252;DHT22;8742;51.716;8.790;2023-07-31T06:09:39;16.80;99.90
17252;DHT22;8742;51.716;8.790;2023-07-31T06:12:06;16.80;99.90
17252;DHT22;8742;51.716;8.790;2023-07-31T06:14:35;16.80;99.90
17252;DHT22;8742;51.716;8.790;2023-07-31T06:17:03;16.80;99.90
17252;DHT22;8742;51.716;8.790;2023-07-31T06:19:33;16.80;99.90
17252;DHT22;8742;51.716;8.790;2023-07-31T06:22:00;16.90;99.90
17252;DHT22;8742;51.716;8.790;2023-07-31T06:24:28;16.90;99.90
17252;DHT22;8742;51.716;8.790;2023-07-31T06:26:55;17.00;99.90
17252;DHT22;8742;51.716;8.790;2023-07-31T06:29:23;17.00;99.90
17252;DHT22;8742;51.716;8.790;2023-07-31T06:31:50;17.10;99.90
17252;DHT22;8742;51.716;8.790;2023-07-31T06:34:18;17.10;99.90
17252;DHT22;8742;51.716;8.790;2023-07-31T06:36:45;17.00;99.90
17252;DHT22;8742;51.716;8.790;2023-07-31T06:39:12;17.10;99.90
17252;DHT22;8742;51.716;8.790;2023-07-31T06:41:39;17.10;99.90
17252;DHT22;8742;51.716;8.790;2023-07-31T06:44:06;17.10;99.90
17252;DHT22;8742;51.716;8.790;2023-07-31T06:46:32;17.10;99.90
17252;DHT22;8742;51.716;8.790;2023-07-31T06:48:59;17.10;99.90
17252;DHT22;8742;51.716;8.790;2023-07-31T06:51:27;17.10;99.90
17252;DHT22;8742;51.716;8.790;2023-07-31T06:53:56;17.00;99.90
17252;DHT22;8742;51.716;8.790;2023-07-31T06:56:23;16.90;99.90
17252;DHT22;8742;51.716;8.790;2023-07-31T06:58:51;16.90;99.90
17252;DHT22;8742;51.716;8.790;2023-07-31T07:01:18;16.90;99.90
17252;DHT22;8742;51.716;8.790;2023-07-31T07:03:45;17.00;99.90
17252;DHT22;8742;51.716;8.790;2023-07-31T07:06:12;17.00;99.90
17252;DHT22;8742;51.716;8.790;2023-07-31T07:08:40;17.00;99.90
17252;DHT22;8742;51.716;8.790;2023-07-31T07:11:07;17.00;99.90
17252;DHT22;8742;51.716;8.790;2023-07-31T07:13:34;17.10;99.90
17252;DHT22;8742;51.716;8.790;2023-07-31T07:16:00;17.10;99.90
17252;DHT22;8742;51.716;8.790;2023-07-31T07:18:27;17.10;99.90
17252;DHT22;8742;51.716;8.790;2023-07-31T07:20:54;17.20;99.90
17252;DHT22;8742;51.716;8.790;2023-07-31T07:23:22;17.20;99.90
17252;DHT22;8742;51.716;8.790;2023-07-31T07:25:51;17.20;99.90
17252;DHT22;8742;51.716;8.790;2023-07-31T07:28:18;17.20;99.90
17252;DHT22;8742;51.716;8.790;2023-07-31T07:30:44;17.00;99.90
17252;DHT22;8742;51.716;8.790;2023-07-31T07:33:11;17.00;99.90
17252;DHT22;8742;51.716;8.790;2023-07-31T07:35:39;16.90;99.90
17252;DHT22;8742;51.716;8.790;2023-07-31T07:38:05;16.90;99.90
17252;DHT22;8742;51.716;8.790;2023-07-31T07:40:32;16.90;99.90
17252;DHT22;8742;51.716;8.790;2023-07-31T07:43:00;16.90;99.90
17252;DHT22;8742;51.716;8.790;2023-07-31T07:45:27;16.90;99.90
17252;DHT22;8742;51.716;8.790;2023-07-31T07:47:54;16.90;99.90
17252;DHT22;8742;51.716;8.790;2023-07-31T07:50:21;17.00;99.90
17252;DHT22;8742;51.716;8.790;2023-07-31T07:52:48;17.00;99.90
17252;DHT22;8742;51.716;8.790;2023-07-31T07:55:14;17.00;99.90
17252;DHT22;8742;51.716;8.790;2023-07-31T07:57:41;17.00;99.90
17252;DHT22;8742;51.716;8.790;2023-07-31T08:00:12;17.00;99.90
17252;DHT22;8742;51.716;8.790;2023-07-31T08:02:39;17.00;99.90
17252;DHT22;8742;51.716;8.790;2023-07-31T08:05:07;16.90;99.90
17252;DHT22;8742;51.716;8.790;2023-07-31T08:07:34;16.80;99.90
17252;DHT22;8742;51.716;8.790;2023-07-31T08:10:01;16.80;99.90
17252;DHT22;8742;51.716;8.790;2023-07-31T08:12:27;16.80;99.90
17252;DHT22;8742;51.716;8.790;2023-07-31T08:14:54;16.70;99.90
17252;DHT22;8742;51.716;8.790;2023-07-31T08:17:23;16.70;99.90
17252;DHT22;8742;51.716;8.790;2023-07-31T08:19:52;16.70;99.90
17252;DHT22;8742;51.716;8.790;2023-07-31T08:22:19;16.80;99.90
17252;DHT22;8742;51.716;8.790;2023-07-31T08:24:45;16.80;99.90
17252;DHT22;8742;51.716;8.790;2023-07-31T08:27:12;16.90;99.90
17252;DHT22;8742;51.716;8.790;2023-07-31T08:29:39;17.00;99.90
17252;DHT22;8742;51.716;8.790;2023-07-31T08:32:06;17.00;99.90
17252;DHT22;8742;51.716;8.790;2023-07-31T08:34:34;17.10;99.90
17252;DHT22;8742;51.716;8.790;2023-07-31T08:37:01;17.20;99.90
17252;DHT22;8742;51.716;8.790;2023-07-31T08:39:28;17.20;99.90
17252;DHT22;8742;51.716;8.790;2023-07-31T08:41:58;17.30;99.90
17252;DHT22;8742;51.716;8.790;2023-07-31T08:44:25;17.40;99.90
17252;DHT22;8742;51.716;8.790;2023-07-31T08:46:52;17.50;99.90
17252;DHT22;8742;51.716;8.790;2023-07-31T08:49:20;17.60;99.90
17252;DHT22;8742;51.716;8.790;2023-07-31T08:51:50;17.70;99.90
17252;DHT22;8742;51.716;8.790;2023-07-31T08:54:18;17.80;99.90
17252;DHT22;8742;51.716;8.790;2023-07-31T08:56:46;17.90;99.90
17252;DHT22;8742;51.716;8.790;2023-07-31T08:59:14;18.00;99.90
17252;DHT22;8742;51.716;8.790;2023-07-31T09:01:45;18.00;99.90
17252;DHT22;8742;51.716;8.790;2023-07-31T09:04:16;18.00;99.90
17252;DHT22;8742;51.716;8.790;2023-07-31T09:06:45;18.00;99.90
17252;DHT22;8742;51.716;8.790;2023-07-31T09:09:15;18.00;99.90
17252;DHT22;8742;51.716;8.790;2023-07-31T09:11:42;18.00;99.90
17252;DHT22;8742;51.716;8.790;2023-07-31T09:14:10;17.90;99.90
17252;DHT22;8742;51.716;8.790;2023-07-31T09:16:51;17.90;99.90
17252;DHT22;8742;51.716;8.790;2023-07-31T09:19:25;17.80;99.90
17252;DHT22;8742;51.716;8.790;2023-07-31T09:21:55;17.80;99.90
17252;DHT22;8742;51.716;8.790;2023-07-31T09:24:30;17.90;99.90
17252;DHT22;8742;51.716;8.790;2023-07-31T09:26:58;17.90;99.90
17252;DHT22;8742;51.716;8.790;2023-07-31T09:29:26;18.00;99.90
17252;DHT22;8742;51.716;8.790;2023-07-31T09:31:54;18.10;99.90
17252;DHT22;8742;51.716;8.790;2023-07-31T09:34:28;18.20;99.90
17252;DHT22;8742;51.716;8.790;2023-07-31T09:37:01;18.30;99.90
17252;DHT22;8742;51.716;8.790;2023-07-31T09:39:29;18.40;99.90
17252;DHT22;8742;51.716;8.790;2023-07-31T09:41:57;18.50;99.90
17252;DHT22;8742;51.716;8.790;2023-07-31T09:44:38;18.70;99.90
17252;DHT22;8742;51.716;8.790;2023-07-31T09:47:06;18.80;99.90
17252;DHT22;8742;51.716;8.790;2023-07-31T09:49:33;18.90;99.90
17252;DHT22;8742;51.716;8.790;2023-07-31T09:52:00;19.00;99.90
17252;DHT22;8742;51.716;8.790;2023-07-31T09:54:27;19.00;99.90
17252;DHT22;8742;51.716;8.790;2023-07-31T09:56:56;19.00;99.90
17252;DHT22;8742;51.716;8.790;2023-07-31T09:59:25;19.20;99.90
17252;DHT22;8742;51.716;8.790;2023-07-31T10:01:53;19.30;99.90
17252;DHT22;8742;51.716;8.790;2023-07-31T10:04:24;19.40;99.90
17252;DHT22;8742;51.716;8.790;2023-07-31T10:06:53;19.60;99.90
17252;DHT22;8742;51.716;8.790;2023-07-31T10:09:21;19.80;99.90
17252;DHT22;8742;51.716;8.790;2023-07-31T10:11:55;19.90;99.90
17252;DHT22;8742;51.716;8.790;2023-07-31T10:14:24;20.00;99.90
17252;DHT22;8742;51.716;8.790;2023-07-31T10:16:52;20.00;99.90
17252;DHT22;8742;51.716;8.790;2023-07-31T10:19:21;20.00;99.90
17252;DHT22;8742;51.716;8.790;2023-07-31T10:21:48;20.00;99.90
17252;DHT22;8742;51.716;8.790;2023-07-31T10:24:16;20.00;99.90
17252;DHT22;8742;51.716;8.790;2023-07-31T10:26:45;20.00;99.90
17252;DHT22;8742;51.716;8.790;2023-07-31T10:29:16;20.00;99.90
17252;DHT22;8742;51.716;8.790;2023-07-31T10:31:44;20.00;99.90
17252;DHT22;8742;51.716;8.790;2023-07-31T10:34:12;19.80;99.90
17252;DHT22;8742;51.716;8.790;2023-07-31T10:36:40;19.70;99.90
17252;DHT22;8742;51.716;8.790;2023-07-31T10:39:33;19.60;99.90
17252;DHT22;8742;51.716;8.790;2023-07-31T10:42:00;19.40;99.90
17252;DHT22;8742;51.716;8.790;2023-07-31T10:44:37;19.20;99.90
17252;DHT22;8742;51.716;8.790;2023-07-31T10:47:04;19.00;99.90
17252;DHT22;8742;51.716;8.790;2023-07-31T10:49:33;18.90;99.90
17252;DHT22;8742;51.716;8.790;2023-07-31T10:52:03;18.80;99.90
17252;DHT22;8742;51.716;8.790;2023-07-31T10:54:30;18.60;99.90
17252;DHT22;8742;51.716;8.790;2023-07-31T10:56:59;18.50;99.90
17252;DHT22;8742;51.716;8.790;2023-07-31T10:59:27;18.30;99.90
17252;DHT22;8742;51.716;8.790;2023-07-31T11:01:56;18.20;99.90
17252;DHT22;8742;51.716;8.790;2023-07-31T11:04:24;18.20;99.90
17252;DHT22;8742;51.716;8.790;2023-07-31T11:06:59;18.10;99.90
17252;DHT22;8742;51.716;8.790;2023-07-31T11:09:28;18.10;99.90
17252;DHT22;8742;51.716;8.790;2023-07-31T11:11:56;18.10;99.90
17252;DHT22;8742;51.716;8.790;2023-07-31T11:14:26;18.10;99.90
17252;DHT22;8742;51.716;8.790;2023-07-31T11:16:52;18.20;99.90
17252;DHT22;8742;51.716;8.790;2023-07-31T11:19:24;18.30;99.90
17252;DHT22;8742;51.716;8.790;2023-07-31T11:21:53;18.40;99.90
17252;DHT22;8742;51.716;8.790;2023-07-31T11:24:20;18.40;99.90
17252;DHT22;8742;51.716;8.790;2023-07-31T11:26:51;18.50;99.90
17252;DHT22;8742;51.716;8.790;2023-07-31T11:29:18;18.70;99.90
17252;DHT22;8742;51.716;8.790;2023-07-31T11:31:46;18.90;99.90
17252;DHT22;8742;51.716;8.790;2023-07-31T11:34:14;19.00;99.90
17252;DHT22;8742;51.716;8.790;2023-07-31T11:36:52;19.10;99.90
17252;DHT22;8742;51.716;8.790;2023-07-31T11:39:20;19.30;99.90
17252;DHT22;8742;51.716;8.790;2023-07-31T11:41:47;19.30;99.90
17252;DHT22;8742;51.716;8.790;2023-07-31T11:44:14;19.30;99.90
17252;DHT22;8742;51.716;8.790;2023-07-31T11:46:41;19.30;99.90
17252;DHT22;8742;51.716;8.790;2023-07-31T11:49:09;19.30;99.90
17252;DHT22;8742;51.716;8.790;2023-07-31T11:51:36;19.20;99.90
17252;DHT22;8742;51.716;8.790;2023-07-31T11:54:04;19.30;99.90
17252;DHT22;8742;51.716;8.790;2023-07-31T11:56:32;19.30;99.90
17252;DHT22;8742;51.716;8.790;2023-07-31T11:59:00;19.40;99.90
17252;DHT22;8742;51.716;8.790;2023-07-31T12:01:29;19.50;99.90
17252;DHT22;8742;51.716;8.790;2023-07-31T12:03:56;19.50;99.90
17252;DHT22;8742;51.716;8.790;2023-07-31T12:06:32;19.40;99.90
17252;DHT22;8742;51.716;8.790;2023-07-31T12:09:02;19.20;99.90
17252;DHT22;8742;51.716;8.790;2023-07-31T12:11:31;19.10;99.90
17252;DHT22;8742;51.716;8.790;2023-07-31T12:14:00;19.00;99.90
17252;DHT22;8742;51.716;8.790;2023-07-31T12:16:30;19.00;99.90
17252;DHT22;8742;51.716;8.790;2023-07-31T12:18:58;19.00;99.90
17252;DHT22;8742;51.716;8.790;2023-07-31T12:21:27;19.00;99.90
17252;DHT22;8742;51.716;8.790;2023-07-31T12:23:54;19.00;99.90
17252;DHT22;8742;51.716;8.790;2023-07-31T12:26:22;19.10;99.90
17252;DHT22;8742;51.716;8.790;2023-07-31T12:28:54;19.20;99.90
17252;DHT22;8742;51.716;8.790;2023-07-31T12:31:22;19.40;99.90
17252;DHT22;8742;51.716;8.790;2023-07-31T12:33:50;19.50;99.90
17252;DHT22;8742;51.716;8.790;2023-07-31T12:36:22;19.70;99.90
17252;DHT22;8742;51.716;8.790;2023-07-31T12:38:50;20.00;99.90
17252;DHT22;8742;51.716;8.790;2023-07-31T12:41:17;20.20;99.90
17252;DHT22;8742;51.716;8.790;2023-07-31T12:43:45;20.10;99.90
17252;DHT22;8742;51.716;8.790;2023-07-31T12:46:13;20.00;99.90
17252;DHT22;8742;51.716;8.790;2023-07-31T12:48:40;19.90;99.90
17252;DHT22;8742;51.716;8.790;2023-07-31T12:51:07;19.80;99.90
17252;DHT22;8742;51.716;8.790;2023-07-31T12:53:34;19.70;99.90
17252;DHT22;8742;51.716;8.790;2023-07-31T12:56:01;19.50;99.90
17252;DHT22;8742;51.716;8.790;2023-07-31T12:58:28;19.50;99.90
17252;DHT22;8742;51.716;8.790;2023-07-31T13:00:55;19.40;99.90
17252;DHT22;8742;51.716;8.790;2023-07-31T13:03:24;19.40;99.90
17252;DHT22;8742;51.716;8.790;2023-07-31T13:05:51;19.30;99.90
17252;DHT22;8742;51.716;8.790;2023-07-31T13:08:18;19.30;99.90
17252;DHT22;8742;51.716;8.790;2023-07-31T13:10:45;19.30;99.90
17252;DHT22;8742;51.716;8.790;2023-07-31T13:13:14;19.30;99.90
17252;DHT22;8742;51.716;8.790;2023-07-31T13:15:40;19.20;99.90
17252;DHT22;8742;51.716;8.790;2023-07-31T13:18:07;19.20;99.90
17252;DHT22;8742;51.716;8.790;2023-07-31T13:20:36;19.20;99.90
17252;DHT22;8742;51.716;8.790;2023-07-31T13:23:02;19.20;99.90
17252;DHT22;8742;51.716;8.790;2023-07-31T13:25:29;19.20;99.90
17252;DHT22;8742;51.716;8.790;2023-07-31T13:27:56;19.10;99.90
17252;DHT22;8742;51.716;8.790;2023-07-31T13:30:23;19.20;99.90
17252;DHT22;8742;51.716;8.790;2023-07-31T13:32:50;19.20;99.90
17252;DHT22;8742;51.716;8.790;2023-07-31T13:35:16;19.20;99.90
17252;DHT22;8742;51.716;8.790;2023-07-31T13:37:45;19.20;99.90
17252;DHT22;8742;51.716;8.790;2023-07-31T13:40:11;19.10;99.90
17252;DHT22;8742;51.716;8.790;2023-07-31T13:42:38;18.90;99.90
17252;DHT22;8742;51.716;8.790;2023-07-31T13:45:06;18.90;99.90
17252;DHT22;8742;51.716;8.790;2023-07-31T13:47:32;18.90;99.90
17252;DHT22;8742;51.716;8.790;2023-07-31T13:49:59;19.00;99.90
17252;DHT22;8742;51.716;8.790;2023-07-31T13:52:26;19.10;99.90
17252;DHT22;8742;51.716;8.790;2023-07-31T13:54:56;19.30;99.90
17252;DHT22;8742;51.716;8.790;2023-07-31T13:57:23;19.50;99.90
17252;DHT22;8742;51.716;8.790;2023-07-31T13:59:54;19.70;99.90
17252;DHT22;8742;51.716;8.790;2023-07-31T14:02:20;19.80;99.90
17252;DHT22;8742;51.716;8.790;2023-07-31T14:04:47;19.80;99.90
17252;DHT22;8742;51.716;8.790;2023-07-31T14:07:14;19.80;99.90
17252;DHT22;8742;51.716;8.790;2023-07-31T14:09:43;19.80;99.90
17252;DHT22;8742;51.716;8.790;2023-07-31T14:12:11;19.80;99.90
17252;DHT22;8742;51.716;8.790;2023-07-31T14:14:38;19.80;99.90
17252;DHT22;8742;51.716;8.790;2023-07-31T14:17:05;19.70;99.90
17252;DHT22;8742;51.716;8.790;2023-07-31T14:19:32;19.70;99.90
17252;DHT22;8742;51.716;8.790;2023-07-31T14:21:59;19.70;99.90
17252;DHT22;8742;51.716;8.790;2023-07-31T14:24:26;19.70;99.90
17252;DHT22;8742;51.716;8.790;2023-07-31T14:26:52;19.70;99.90
17252;DHT22;8742;51.716;8.790;2023-07-31T14:29:21;19.70;99.90
17252;DHT22;8742;51.716;8.790;2023-07-31T14:31:49;19.60;99.90
17252;DHT22;8742;51.716;8.790;2023-07-31T14:34:16;19.50;99.90
17252;DHT22;8742;51.716;8.790;2023-07-31T14:36:43;19.30;99.90
17252;DHT22;8742;51.716;8.790;2023-07-31T14:39:11;19.20;99.90
17252;DHT22;8742;51.716;8.790;2023-07-31T14:41:38;19.00;99.90
17252;DHT22;8742;51.716;8.790;2023-07-31T14:44:05;18.80;99.90
17252;DHT22;8742;51.716;8.790;2023-07-31T14:46:33;18.70;99.90
17252;DHT22;8742;51.716;8.790;2023-07-31T14:49:00;18.60;99.90
17252;DHT22;8742;51.716;8.790;2023-07-31T14:51:27;18.60;99.90
17252;DHT22;8742;51.716;8.790;2023-07-31T14:53:53;18.60;99.90
17252;DHT22;8742;51.716;8.790;2023-07-31T14:56:20;18.60;99.90
17252;DHT22;8742;51.716;8.790;2023-07-31T14:58:47;18.60;99.90
17252;DHT22;8742;51.716;8.790;2023-07-31T15:01:14;18.70;99.90
17252;DHT22;8742;51.716;8.790;2023-07-31T15:03:42;18.70;99.90
17252;DHT22;8742;51.716;8.790;2023-07-31T15:06:12;18.80;99.90
17252;DHT22;8742;51.716;8.790;2023-07-31T15:08:39;18.90;99.90
17252;DHT22;8742;51.716;8.790;2023-07-31T15:11:10;18.90;99.90
17252;DHT22;8742;51.716;8.790;2023-07-31T15:13:37;19.10;99.90
17252;DHT22;8742;51.716;8.790;2023-07-31T15:16:04;19.20;99.90
17252;DHT22;8742;51.716;8.790;2023-07-31T15:18:31;19.40;99.90
17252;DHT22;8742;51.716;8.790;2023-07-31T15:20:59;19.50;99.90
17252;DHT22;8742;51.716;8.790;2023-07-31T15:23:26;19.50;99.90
17252;DHT22;8742;51.716;8.790;2023-07-31T15:25:52;19.50;99.90
17252;DHT22;8742;51.716;8.790;2023-07-31T15:28:19;19.40;99.90
17252;DHT22;8742;51.716;8.790;2023-07-31T15:30:46;19.40;99.90
17252;DHT22;8742;51.716;8.790;2023-07-31T15:33:13;19.40;99.90
17252;DHT22;8742;51.716;8.790;2023-07-31T15:35:40;19.40;99.90
17252;DHT22;8742;51.716;8.790;2023-07-31T15:38:08;19.40;99.90
17252;DHT22;8742;51.716;8.790;2023-07-31T15:40:35;19.40;99.90
17252;DHT22;8742;51.716;8.790;2023-07-31T15:43:02;19.50;99.90
17252;DHT22;8742;51.716;8.790;2023-07-31T15:45:29;19.50;99.90
17252;DHT22;8742;51.716;8.790;2023-07-31T15:47:59;19.50;99.90
17252;DHT22;8742;51.716;8.790;2023-07-31T15:50:25;19.60;99.90
17252;DHT22;8742;51.716;8.790;2023-07-31T15:52:52;19.70;99.90